createdAt,value
2019-01-12T00:00:27.054Z,89.15
2019-01-12T00:01:27.386Z,90.14
2019-01-12T00:02:27.042Z,89.87
2019-01-12T00:03:27.022Z,89.42
2019-01-12T00:04:27.014Z,89.87
2019-01-12T00:05:27.007Z,89.77
2019-01-12T00:06:26.989Z,90.08
2019-01-12T00:07:26.987Z,89.46
2019-01-12T00:08:26.967Z,90.19
2019-01-12T00:09:26.960Z,89.56
2019-01-12T00:10:26.950Z,89.56
2019-01-12T00:11:26.935Z,89.56
2019-01-12T00:12:26.931Z,89.36
2019-01-12T00:13:26.914Z,89.46
2019-01-12T00:14:26.906Z,89.15
2019-01-12T00:15:26.891Z,89.25
2019-01-12T00:16:26.881Z,89.56
2019-01-12T00:17:26.883Z,89.15
2019-01-12T00:18:26.858Z,89.15
2019-01-12T00:19:26.849Z,89.04
2019-01-12T00:20:26.842Z,89.36
2019-01-12T00:21:26.825Z,89.36
2019-01-12T00:22:26.823Z,89.36
2019-01-12T00:23:26.803Z,89.25
2019-01-12T00:24:31.582Z,89.98
2019-01-12T00:25:27.782Z,89.25
2019-01-12T00:26:26.771Z,89.15
2019-01-12T00:27:26.798Z,89.46
2019-01-12T00:28:26.755Z,89.46
2019-01-12T00:29:26.738Z,89.36
2019-01-12T00:30:26.731Z,89.15
2019-01-12T00:31:26.716Z,88.98
2019-01-12T00:32:26.718Z,89.36
2019-01-12T00:33:26.696Z,88.73
2019-01-12T00:34:26.686Z,88.63
2019-01-12T00:35:26.676Z,88.46
2019-01-12T00:36:26.661Z,88.21
2019-01-12T00:37:26.672Z,88.63
2019-01-12T00:38:26.639Z,88.84
2019-01-12T00:39:26.629Z,88.42
2019-01-12T00:40:26.620Z,88.73
2019-01-12T00:41:26.610Z,88.63
2019-01-12T00:42:26.605Z,88.84
2019-01-12T00:43:26.589Z,88.42
2019-01-12T00:44:26.576Z,88.46
2019-01-12T00:45:26.567Z,88.63
2019-01-12T00:46:26.553Z,88.32
2019-01-12T00:47:26.552Z,88.32
2019-01-12T00:48:26.533Z,88.46
2019-01-12T00:49:26.520Z,88.88
2019-01-12T00:50:26.510Z,89.09
2019-01-12T00:51:26.502Z,88.78
2019-01-12T00:52:26.518Z,88.88
2019-01-12T00:53:26.482Z,88.88
2019-01-12T00:54:27.227Z,88.98
2019-01-12T00:55:26.456Z,88.32
2019-01-12T00:56:26.447Z,88.42
2019-01-12T00:57:26.433Z,87.74
2019-01-12T00:58:26.431Z,88.21
2019-01-12T00:59:26.413Z,88.32
2019-01-12T01:00:26.401Z,88.78
2019-01-12T01:01:26.394Z,88.67
2019-01-12T01:02:26.380Z,88.57
2019-01-12T01:03:26.380Z,88.46
2019-01-12T01:04:26.370Z,88.05
2019-01-12T01:05:26.347Z,87.84
2019-01-12T01:06:26.341Z,87.74
2019-01-12T01:07:26.324Z,87.74
2019-01-12T01:08:26.326Z,88.15
2019-01-12T01:09:26.306Z,88.78
2019-01-12T01:10:26.295Z,87.84
2019-01-12T01:11:26.282Z,87.63
2019-01-12T01:12:26.274Z,87.84
2019-01-12T01:13:26.272Z,87.53
2019-01-12T01:14:26.252Z,87.63
2019-01-12T01:15:26.240Z,87.53
2019-01-12T01:16:26.227Z,87.84
2019-01-12T01:17:26.219Z,87.74
2019-01-12T01:18:26.215Z,87.53
2019-01-12T01:19:26.197Z,87.84
2019-01-12T01:20:26.189Z,87.32
2019-01-12T01:21:26.173Z,87.22
2019-01-12T01:22:26.166Z,87.63
2019-01-12T01:23:26.160Z,87.74
2019-01-12T01:24:26.142Z,87.53
2019-01-12T01:25:26.137Z,87.99
2019-01-12T01:26:26.123Z,87.68
2019-01-12T01:27:26.109Z,88.09
2019-01-12T01:28:26.108Z,87.74
2019-01-12T01:29:26.089Z,88.09
2019-01-12T01:30:26.087Z,87.74
2019-01-12T01:31:26.067Z,88.09
2019-01-12T01:32:26.056Z,87.74
2019-01-12T01:33:28.039Z,87.68
2019-01-12T01:34:26.032Z,87.99
2019-01-12T01:35:26.022Z,87.99
2019-01-12T01:36:26.011Z,88.78
2019-01-12T01:37:26.002Z,88.05
2019-01-12T01:38:25.998Z,87.95
2019-01-12T01:39:25.979Z,87.95
2019-01-12T01:40:25.968Z,87.63
2019-01-12T01:41:25.958Z,87.53
2019-01-12T01:42:25.946Z,87.32
2019-01-12T01:43:25.944Z,87.68
2019-01-12T01:44:25.932Z,87.88
2019-01-12T01:45:25.916Z,87.78
2019-01-12T01:46:25.903Z,87.68
2019-01-12T01:47:25.901Z,87.68
2019-01-12T01:48:25.889Z,87.88
2019-01-12T01:49:25.877Z,87.88
2019-01-12T01:50:25.859Z,87.47
2019-01-12T01:51:25.849Z,87.78
2019-01-12T01:52:25.840Z,87.57
2019-01-12T01:53:25.838Z,87.68
2019-01-12T01:54:25.820Z,87.78
2019-01-12T01:55:25.805Z,87.99
2019-01-12T01:56:25.796Z,87.88
2019-01-12T01:57:25.786Z,87.78
2019-01-12T01:58:26.072Z,88.20
2019-01-12T01:59:25.762Z,88.09
2019-01-12T02:00:25.751Z,87.99
2019-01-12T02:01:25.741Z,87.57
2019-01-12T02:02:25.729Z,87.68
2019-01-12T02:03:25.720Z,88.20
2019-01-12T02:04:25.718Z,87.88
2019-01-12T02:05:25.697Z,88.30
2019-01-12T02:06:25.688Z,88.82
2019-01-12T02:07:25.676Z,88.92
2019-01-12T02:08:25.665Z,88.40
2019-01-12T02:09:25.664Z,88.61
2019-01-12T02:10:25.643Z,88.51
2019-01-12T02:11:25.636Z,88.92
2019-01-12T02:12:25.622Z,88.71
2019-01-12T02:13:25.610Z,87.88
2019-01-12T02:14:25.623Z,88.02
2019-01-12T02:15:25.590Z,88.02
2019-01-12T02:16:25.580Z,88.09
2019-01-12T02:17:25.572Z,87.88
2019-01-12T02:18:25.562Z,87.99
2019-01-12T02:19:25.557Z,87.78
2019-01-12T02:20:25.537Z,87.57
2019-01-12T02:21:25.528Z,87.88
2019-01-12T02:22:25.518Z,87.47
2019-01-12T02:23:25.507Z,87.30
2019-01-12T02:24:25.502Z,87.37
2019-01-12T02:25:25.485Z,87.88
2019-01-12T02:26:25.473Z,87.47
2019-01-12T02:27:25.462Z,87.37
2019-01-12T02:28:25.455Z,86.54
2019-01-12T02:29:25.449Z,87.16
2019-01-12T02:30:25.438Z,87.40
2019-01-12T02:31:25.417Z,87.26
2019-01-12T02:32:25.410Z,88.13
2019-01-12T02:33:25.398Z,87.92
2019-01-12T02:34:25.397Z,87.57
2019-01-12T02:35:25.376Z,87.68
2019-01-12T02:36:25.364Z,87.47
2019-01-12T02:37:25.356Z,87.68
2019-01-12T02:38:25.345Z,88.09
2019-01-12T02:39:25.344Z,87.99
2019-01-12T02:40:25.324Z,88.09
2019-01-12T02:41:25.314Z,87.88
2019-01-12T02:42:25.300Z,87.88
2019-01-12T02:43:25.290Z,87.78
2019-01-12T02:44:25.291Z,87.51
2019-01-12T02:45:25.271Z,87.82
2019-01-12T02:46:25.257Z,87.78
2019-01-12T02:47:25.248Z,87.78
2019-01-12T02:48:25.236Z,87.92
2019-01-12T02:49:25.250Z,87.88
2019-01-12T02:50:25.215Z,87.57
2019-01-12T02:51:25.204Z,87.78
2019-01-12T02:52:25.194Z,87.88
2019-01-12T02:53:25.186Z,87.78
2019-01-12T02:54:25.179Z,87.99
2019-01-12T02:55:25.167Z,87.78
2019-01-12T02:56:25.150Z,87.82
2019-01-12T02:57:25.141Z,87.82
2019-01-12T02:58:25.132Z,87.61
2019-01-12T02:59:25.207Z,87.82
2019-01-12T03:00:25.110Z,87.82
2019-01-12T03:01:25.099Z,87.82
2019-01-12T03:02:25.086Z,88.40
2019-01-12T03:03:25.081Z,88.02
2019-01-12T03:04:25.095Z,87.92
2019-01-12T03:05:25.055Z,88.13
2019-01-12T03:06:25.045Z,87.92
2019-01-12T03:07:25.035Z,88.02
2019-01-12T03:08:25.025Z,88.44
2019-01-12T03:09:25.012Z,88.44
2019-01-12T03:10:25.010Z,88.54
2019-01-12T03:11:24.990Z,88.54
2019-01-12T03:12:24.982Z,88.65
2019-01-12T03:13:24.969Z,88.23
2019-01-12T03:14:24.962Z,89.06
2019-01-12T03:15:24.957Z,88.65
2019-01-12T03:16:24.938Z,88.75
2019-01-12T03:17:24.926Z,88.96
2019-01-12T03:18:24.919Z,90.10
2019-01-12T03:19:24.905Z,88.85
2019-01-12T03:20:24.917Z,89.17
2019-01-12T03:21:24.884Z,89.06
2019-01-12T03:22:24.875Z,89.58
2019-01-12T03:23:24.862Z,89.27
2019-01-12T03:24:24.851Z,89.17
2019-01-12T03:25:24.852Z,89.69
2019-01-12T03:26:24.830Z,89.48
2019-01-12T03:27:24.819Z,89.27
2019-01-12T03:28:24.812Z,89.17
2019-01-12T03:29:24.797Z,89.37
2019-01-12T03:30:24.811Z,89.58
2019-01-12T03:31:24.780Z,89.48
2019-01-12T03:32:24.768Z,89.06
2019-01-12T03:33:24.758Z,89.48
2019-01-12T03:34:24.743Z,89.17
2019-01-12T03:35:24.783Z,89.69
2019-01-12T03:36:24.728Z,89.69
2019-01-12T03:37:24.712Z,89.58
2019-01-12T03:38:24.705Z,89.48
2019-01-12T03:39:24.690Z,90.52
2019-01-12T03:40:24.694Z,90.20
2019-01-12T03:41:24.676Z,90.20
2019-01-12T03:42:24.659Z,89.89
2019-01-12T03:43:24.647Z,89.37
2019-01-12T03:44:24.638Z,89.48
2019-01-12T03:45:24.626Z,89.27
2019-01-12T03:46:24.628Z,89.27
2019-01-12T03:47:24.602Z,89.06
2019-01-12T03:48:24.592Z,89.27
2019-01-12T03:49:24.581Z,89.17
2019-01-12T03:50:24.570Z,89.27
2019-01-12T03:51:24.571Z,89.27
2019-01-12T03:52:24.555Z,89.17
2019-01-12T03:53:24.539Z,89.48
2019-01-12T03:54:24.531Z,88.65
2019-01-12T03:55:25.799Z,88.96
2019-01-12T03:56:24.516Z,89.17
2019-01-12T03:57:24.499Z,89.27
2019-01-12T03:58:24.486Z,88.85
2019-01-12T03:59:24.475Z,89.37
2019-01-12T04:00:24.462Z,88.75
2019-01-12T04:01:24.461Z,89.27
2019-01-12T04:02:24.443Z,88.65
2019-01-12T04:03:24.430Z,88.65
2019-01-12T04:04:24.428Z,88.85
2019-01-12T04:05:24.409Z,89.17
2019-01-12T04:06:24.406Z,89.17
2019-01-12T04:07:24.391Z,89.27
2019-01-12T04:08:24.378Z,89.27
2019-01-12T04:09:24.385Z,88.65
2019-01-12T04:10:24.354Z,89.06
2019-01-12T04:11:24.353Z,88.75
2019-01-12T04:12:24.334Z,89.37
2019-01-12T04:13:24.347Z,89.17
2019-01-12T04:14:24.313Z,89.17
2019-01-12T04:15:24.300Z,89.37
2019-01-12T04:16:24.301Z,89.48
2019-01-12T04:17:24.279Z,89.27
2019-01-12T04:18:24.270Z,89.27
2019-01-12T04:19:24.261Z,89.06
2019-01-12T04:20:24.254Z,89.17
2019-01-12T04:21:24.245Z,89.48
2019-01-12T04:22:24.226Z,89.58
2019-01-12T04:23:24.215Z,89.06
2019-01-12T04:24:24.203Z,89.27
2019-01-12T04:25:24.192Z,88.96
2019-01-12T04:26:24.190Z,89.06
2019-01-12T04:27:24.172Z,89.37
2019-01-12T04:28:24.161Z,89.48
2019-01-12T04:29:24.150Z,90.31
2019-01-12T04:30:24.141Z,89.79
2019-01-12T04:31:24.138Z,89.69
2019-01-12T04:32:24.116Z,90.41
2019-01-12T04:33:24.105Z,90.20
2019-01-12T04:34:24.102Z,90.31
2019-01-12T04:35:24.086Z,90.10
2019-01-12T04:36:24.083Z,90.20
2019-01-12T04:37:24.064Z,90.31
2019-01-12T04:38:24.054Z,90.00
2019-01-12T04:39:24.042Z,90.31
2019-01-12T04:40:24.031Z,90.00
2019-01-12T04:41:24.029Z,90.10
2019-01-12T04:42:24.009Z,89.89
2019-01-12T04:43:23.999Z,90.00
2019-01-12T04:44:23.986Z,89.89
2019-01-12T04:45:23.977Z,89.58
2019-01-12T04:46:23.975Z,90.00
2019-01-12T04:47:23.964Z,89.58
2019-01-12T04:48:23.945Z,90.10
2019-01-12T04:49:23.932Z,89.89
2019-01-12T04:50:23.921Z,89.79
2019-01-12T04:51:23.917Z,90.10
2019-01-12T04:52:23.900Z,90.41
2019-01-12T04:53:23.890Z,90.52
2019-01-12T04:54:23.885Z,90.10
2019-01-12T04:55:23.872Z,90.48
2019-01-12T04:56:23.859Z,90.00
2019-01-12T04:57:23.858Z,89.79
2019-01-12T04:58:23.840Z,90.06
2019-01-12T04:59:23.825Z,89.69
2019-01-12T05:00:23.816Z,89.65
2019-01-12T05:01:23.802Z,89.89
2019-01-12T05:02:23.810Z,89.89
2019-01-12T05:03:23.783Z,89.58
2019-01-12T05:04:23.770Z,90.10
2019-01-12T05:05:23.767Z,90.41
2019-01-12T05:06:23.756Z,89.86
2019-01-12T05:07:23.751Z,89.89
2019-01-12T05:08:23.729Z,90.20
2019-01-12T05:09:23.718Z,89.65
2019-01-12T05:10:23.706Z,90.10
2019-01-12T05:11:23.695Z,89.86
2019-01-12T05:12:23.702Z,90.06
2019-01-12T05:13:23.672Z,89.75
2019-01-12T05:14:23.663Z,89.86
2019-01-12T05:15:23.651Z,89.54
2019-01-12T05:16:23.641Z,90.06
2019-01-12T05:17:23.646Z,89.69
2019-01-12T05:18:23.664Z,90.06
2019-01-12T05:19:23.609Z,89.96
2019-01-12T05:20:23.597Z,90.48
2019-01-12T05:21:23.589Z,89.96
2019-01-12T05:22:23.593Z,89.89
2019-01-12T05:23:23.570Z,89.86
2019-01-12T05:24:23.565Z,89.79
2019-01-12T05:25:23.543Z,89.86
2019-01-12T05:26:23.533Z,89.86
2019-01-12T05:27:23.540Z,89.54
2019-01-12T05:28:23.512Z,89.86
2019-01-12T05:29:23.504Z,89.96
2019-01-12T05:30:23.492Z,89.54
2019-01-12T05:31:23.489Z,90.06
2019-01-12T05:32:23.479Z,89.86
2019-01-12T05:33:23.458Z,90.06
2019-01-12T05:34:23.450Z,89.54
2019-01-12T05:35:23.436Z,89.86
2019-01-12T05:36:23.427Z,89.86
2019-01-12T05:37:23.425Z,89.96
2019-01-12T05:38:23.409Z,89.65
2019-01-12T05:39:23.392Z,90.37
2019-01-12T05:40:23.384Z,89.44
2019-01-12T05:41:23.372Z,89.34
2019-01-12T05:42:23.374Z,89.23
2019-01-12T05:43:23.352Z,89.58
2019-01-12T05:44:23.340Z,89.54
2019-01-12T05:45:23.331Z,89.44
2019-01-12T05:46:23.319Z,89.44
2019-01-12T05:47:23.325Z,89.13
2019-01-12T05:48:23.295Z,88.92
2019-01-12T05:49:23.284Z,88.40
2019-01-12T05:50:23.274Z,88.40
2019-01-12T05:51:23.273Z,88.40
2019-01-12T05:52:23.261Z,89.13
2019-01-12T05:53:23.247Z,89.03
2019-01-12T05:54:23.232Z,88.71
2019-01-12T05:55:23.222Z,89.13
2019-01-12T05:56:23.211Z,88.82
2019-01-12T05:57:23.208Z,88.71
2019-01-12T05:58:23.193Z,88.30
2019-01-12T05:59:23.177Z,87.88
2019-01-12T06:00:23.167Z,87.78
2019-01-12T06:01:23.155Z,87.68
2019-01-12T06:02:23.153Z,87.68
2019-01-12T06:03:23.136Z,88.09
2019-01-12T06:04:23.128Z,87.84
2019-01-12T06:05:23.114Z,88.09
2019-01-12T06:06:23.101Z,87.63
2019-01-12T06:07:23.100Z,87.88
2019-01-12T06:08:23.080Z,87.43
2019-01-12T06:09:23.074Z,86.54
2019-01-12T06:10:23.058Z,86.60
2019-01-12T06:11:23.048Z,86.39
2019-01-12T06:12:23.070Z,85.77
2019-01-12T06:13:23.026Z,85.97
2019-01-12T06:14:23.014Z,85.97
2019-01-12T06:15:23.007Z,85.87
2019-01-12T06:16:22.995Z,85.97
2019-01-12T06:17:22.986Z,86.08
2019-01-12T06:18:22.986Z,86.08
2019-01-12T06:19:22.963Z,85.87
2019-01-12T06:20:22.952Z,85.56
2019-01-12T06:21:22.940Z,85.14
2019-01-12T06:22:22.931Z,84.94
2019-01-12T06:23:22.928Z,85.56
2019-01-12T06:24:22.908Z,85.14
2019-01-12T06:25:22.898Z,84.73
2019-01-12T06:26:22.887Z,84.52
2019-01-12T06:27:22.877Z,85.04
2019-01-12T06:28:22.878Z,84.83
2019-01-12T06:29:22.855Z,85.04
2019-01-12T06:30:22.844Z,85.14
2019-01-12T06:31:22.832Z,85.35
2019-01-12T06:32:22.825Z,84.94
2019-01-12T06:33:22.823Z,85.04
2019-01-12T06:34:22.803Z,84.21
2019-01-12T06:35:22.794Z,84.52
2019-01-12T06:36:22.781Z,84.52
2019-01-12T06:37:22.768Z,84.83
2019-01-12T06:38:22.793Z,84.63
2019-01-12T06:39:22.746Z,83.90
2019-01-12T06:40:22.736Z,84.73
2019-01-12T06:41:22.725Z,84.73
2019-01-12T06:42:22.714Z,84.83
2019-01-12T06:43:22.710Z,85.04
2019-01-12T06:44:22.692Z,85.04
2019-01-12T06:45:22.682Z,85.04
2019-01-12T06:46:22.670Z,85.14
2019-01-12T06:47:22.660Z,84.52
2019-01-12T06:48:22.659Z,84.83
2019-01-12T06:49:22.640Z,84.73
2019-01-12T06:50:22.630Z,83.90
2019-01-12T06:51:22.617Z,83.90
2019-01-12T06:52:22.606Z,83.90
2019-01-12T06:53:22.604Z,83.76
2019-01-12T06:54:22.586Z,84.21
2019-01-12T06:55:22.576Z,84.21
2019-01-12T06:56:22.564Z,84.94
2019-01-12T06:57:22.553Z,83.65
2019-01-12T06:58:22.550Z,83.38
2019-01-12T06:59:22.529Z,83.48
2019-01-12T07:00:22.519Z,83.14
2019-01-12T07:01:22.512Z,83.28
2019-01-12T07:02:22.497Z,83.24
2019-01-12T07:03:22.494Z,83.24
2019-01-12T07:04:22.477Z,83.14
2019-01-12T07:05:22.465Z,83.69
2019-01-12T07:06:22.454Z,82.62
2019-01-12T07:07:22.445Z,83.28
2019-01-12T07:08:22.440Z,83.17
2019-01-12T07:09:22.423Z,82.97
2019-01-12T07:10:22.410Z,83.38
2019-01-12T07:11:22.399Z,83.07
2019-01-12T07:12:22.388Z,82.97
2019-01-12T07:13:22.389Z,82.62
2019-01-12T07:14:22.367Z,83.28
2019-01-12T07:15:22.355Z,84.00
2019-01-12T07:16:22.346Z,83.76
2019-01-12T07:17:22.334Z,82.76
2019-01-12T07:18:22.331Z,82.76
2019-01-12T07:19:22.312Z,83.07
2019-01-12T07:20:22.302Z,83.17
2019-01-12T07:21:22.291Z,82.45
2019-01-12T07:22:22.280Z,82.65
2019-01-12T07:23:22.277Z,82.72
2019-01-12T07:24:22.259Z,82.72
2019-01-12T07:25:22.249Z,82.82
2019-01-12T07:26:22.236Z,82.93
2019-01-12T07:27:22.225Z,83.34
2019-01-12T07:28:22.224Z,83.38
2019-01-12T07:29:22.203Z,84.00
2019-01-12T07:30:22.197Z,82.76
2019-01-12T07:31:22.184Z,83.14
2019-01-12T07:32:22.173Z,83.07
2019-01-12T07:33:22.197Z,83.86
2019-01-12T07:34:22.150Z,84.69
2019-01-12T07:35:22.139Z,83.34
2019-01-12T07:36:22.129Z,83.80
2019-01-12T07:37:22.125Z,83.17
2019-01-12T07:38:22.106Z,83.97
2019-01-12T07:39:22.104Z,83.28
2019-01-12T07:40:22.086Z,83.55
2019-01-12T07:41:22.073Z,84.69
2019-01-12T07:42:22.207Z,84.80
2019-01-12T07:43:22.053Z,84.07
2019-01-12T07:44:22.050Z,83.34
2019-01-12T07:45:22.029Z,83.76
2019-01-12T07:46:22.021Z,83.55
2019-01-12T07:47:22.010Z,84.28
2019-01-12T07:48:21.998Z,82.97
2019-01-12T07:49:21.999Z,84.80
2019-01-12T07:50:21.977Z,83.97
2019-01-12T07:51:21.966Z,83.34
2019-01-12T07:52:21.954Z,83.55
2019-01-12T07:53:21.946Z,83.97
2019-01-12T07:54:21.942Z,84.48
2019-01-12T07:55:21.922Z,84.59
2019-01-12T07:56:24.568Z,83.97
2019-01-12T07:57:21.900Z,83.55
2019-01-12T07:58:21.889Z,84.90
2019-01-12T07:59:21.893Z,85.11
2019-01-12T08:00:21.895Z,85.11
2019-01-12T08:01:21.861Z,84.48
2019-01-12T08:02:21.845Z,84.80
2019-01-12T08:03:21.833Z,85.21
2019-01-12T08:04:21.833Z,85.83
2019-01-12T08:05:21.817Z,86.04
2019-01-12T08:06:21.807Z,86.35
2019-01-12T08:07:21.789Z,86.25
2019-01-12T08:08:21.783Z,86.55
2019-01-12T08:09:21.780Z,86.97
2019-01-12T08:10:21.758Z,86.87
2019-01-12T08:11:21.752Z,87.43
2019-01-12T08:12:21.744Z,86.35
2019-01-12T08:13:21.727Z,87.28
2019-01-12T08:14:21.725Z,87.80
2019-01-12T08:15:21.705Z,87.28
2019-01-12T08:16:21.692Z,87.90
2019-01-12T08:17:21.686Z,87.74
2019-01-12T08:18:21.673Z,87.70
2019-01-12T08:19:21.668Z,88.98
2019-01-12T08:20:21.649Z,89.36
2019-01-12T08:21:21.637Z,88.36
2019-01-12T08:22:21.628Z,88.21
2019-01-12T08:23:21.618Z,88.73
2019-01-12T08:24:21.620Z,88.53
2019-01-12T08:25:21.596Z,88.94
2019-01-12T08:26:21.583Z,88.53
2019-01-12T08:27:21.572Z,88.73
2019-01-12T08:28:21.562Z,89.46
2019-01-12T08:29:21.565Z,89.36
2019-01-12T08:30:21.539Z,89.25
2019-01-12T08:31:21.529Z,89.52
2019-01-12T08:32:21.518Z,90.14
2019-01-12T08:33:21.509Z,88.94
2019-01-12T08:34:21.515Z,89.87
2019-01-12T08:35:21.492Z,89.36
2019-01-12T08:36:21.475Z,88.79
2019-01-12T08:37:21.465Z,88.59
2019-01-12T08:38:21.453Z,88.69
2019-01-12T08:39:21.454Z,88.84
2019-01-12T08:40:21.436Z,89.21
2019-01-12T08:41:21.434Z,88.79
2019-01-12T08:42:21.410Z,89.31
2019-01-12T08:43:21.400Z,89.31
2019-01-12T08:44:21.397Z,88.69
2019-01-12T08:45:21.391Z,88.18
2019-01-12T08:46:21.374Z,88.28
2019-01-12T08:47:21.355Z,88.90
2019-01-12T08:48:21.345Z,88.79
2019-01-12T08:49:21.627Z,88.59
2019-01-12T08:50:21.321Z,89.21
2019-01-12T08:51:21.356Z,89.31
2019-01-12T08:52:21.304Z,89.07
2019-01-12T08:53:21.289Z,89.83
2019-01-12T08:54:21.284Z,89.52
2019-01-12T08:55:21.277Z,90.14
2019-01-12T08:56:21.259Z,89.94
2019-01-12T08:57:21.247Z,90.04
2019-01-12T08:58:21.238Z,89.89
2019-01-12T08:59:21.228Z,90.56
2019-01-12T09:00:21.222Z,90.97
2019-01-12T09:01:21.201Z,90.45
2019-01-12T09:02:21.191Z,90.87
2019-01-12T09:03:21.182Z,90.97
2019-01-12T09:04:21.177Z,90.93
2019-01-12T09:05:21.167Z,92.22
2019-01-12T09:06:21.147Z,91.49
2019-01-12T09:07:21.138Z,90.97
2019-01-12T09:08:21.131Z,90.83
2019-01-12T09:09:21.115Z,91.49
2019-01-12T09:10:21.117Z,91.45
2019-01-12T09:11:21.093Z,91.91
2019-01-12T09:12:21.082Z,91.49
2019-01-12T09:13:21.071Z,91.55
2019-01-12T09:14:21.060Z,91.86
2019-01-12T09:15:21.062Z,92.18
2019-01-12T09:16:21.037Z,91.45
2019-01-12T09:17:21.026Z,91.76
2019-01-12T09:18:21.016Z,91.97
2019-01-12T09:19:21.005Z,91.97
2019-01-12T09:20:21.099Z,92.07
2019-01-12T09:21:20.987Z,91.76
2019-01-12T09:22:20.974Z,92.49
2019-01-12T09:23:20.963Z,93.52
2019-01-12T09:24:20.950Z,93.73
2019-01-12T09:25:20.950Z,94.14
2019-01-12T09:26:20.932Z,94.14
2019-01-12T09:27:20.926Z,93.93
2019-01-12T09:28:20.908Z,93.83
2019-01-12T09:29:20.898Z,94.14
2019-01-12T09:30:20.893Z,94.04
2019-01-12T09:31:20.882Z,94.14
2019-01-12T09:32:20.863Z,94.04
2019-01-12T09:33:20.860Z,94.56
2019-01-12T09:34:20.842Z,95.07
2019-01-12T09:35:20.845Z,95.07
2019-01-12T09:36:20.819Z,94.76
2019-01-12T09:37:20.809Z,94.76
2019-01-12T09:38:20.802Z,95.18
2019-01-12T09:39:20.788Z,95.39
2019-01-12T09:40:20.786Z,95.39
2019-01-12T09:41:20.767Z,95.53
2019-01-12T09:42:20.760Z,95.59
2019-01-12T09:43:20.743Z,96.42
2019-01-12T09:44:20.735Z,95.80
2019-01-12T09:45:20.730Z,96.31
2019-01-12T09:46:20.713Z,96.21
2019-01-12T09:47:20.699Z,96.21
2019-01-12T09:48:20.688Z,96.42
2019-01-12T09:49:20.680Z,96.31
2019-01-12T09:50:20.676Z,96.52
2019-01-12T09:51:20.656Z,96.11
2019-01-12T09:52:20.645Z,96.11
2019-01-12T09:53:20.637Z,96.21
2019-01-12T09:54:20.627Z,95.80
2019-01-12T09:55:20.623Z,96.94
2019-01-12T09:56:20.601Z,96.83
2019-01-12T09:57:20.590Z,96.73
2019-01-12T09:58:20.580Z,96.94
2019-01-12T09:59:20.569Z,97.14
2019-01-12T10:00:20.587Z,96.73
2019-01-12T10:01:20.548Z,96.94
2019-01-12T10:02:20.537Z,96.21
2019-01-12T10:03:20.526Z,96.73
2019-01-12T10:04:20.514Z,96.48
2019-01-12T10:05:20.505Z,96.83
2019-01-12T10:06:20.506Z,96.27
2019-01-12T10:07:20.482Z,96.27
2019-01-12T10:08:20.472Z,96.27
2019-01-12T10:09:20.462Z,96.27
2019-01-12T10:10:20.448Z,96.17
2019-01-12T10:11:20.448Z,96.17
2019-01-12T10:12:20.426Z,96.27
2019-01-12T10:13:20.420Z,96.37
2019-01-12T10:14:20.405Z,95.86
2019-01-12T10:15:20.397Z,95.54
2019-01-12T10:16:20.393Z,96.17
2019-01-12T10:17:20.373Z,95.75
2019-01-12T10:18:20.366Z,96.06
2019-01-12T10:19:20.360Z,95.81
2019-01-12T10:20:20.340Z,95.86
2019-01-12T10:21:20.384Z,95.86
2019-01-12T10:22:20.319Z,95.54
2019-01-12T10:23:20.312Z,96.37
2019-01-12T10:24:20.298Z,95.75
2019-01-12T10:25:20.302Z,95.81
2019-01-12T10:26:20.283Z,95.09
2019-01-12T10:27:20.265Z,95.40
2019-01-12T10:28:20.253Z,95.09
2019-01-12T10:29:20.248Z,94.68
2019-01-12T10:30:20.233Z,94.57
2019-01-12T10:31:20.229Z,95.15
2019-01-12T10:32:20.210Z,95.09
2019-01-12T10:33:20.199Z,95.19
2019-01-12T10:34:20.188Z,94.98
2019-01-12T10:35:20.183Z,94.47
2019-01-12T10:36:20.176Z,94.12
2019-01-12T10:37:20.156Z,95.04
2019-01-12T10:38:20.145Z,94.84
2019-01-12T10:39:20.133Z,95.15
2019-01-12T10:40:20.126Z,95.15
2019-01-12T10:41:20.122Z,94.63
2019-01-12T10:42:20.102Z,93.60
2019-01-12T10:43:20.090Z,94.01
2019-01-12T10:44:20.080Z,94.73
2019-01-12T10:45:20.069Z,94.22
2019-01-12T10:46:20.067Z,94.22
2019-01-12T10:47:20.049Z,94.01
2019-01-12T10:48:20.039Z,93.60
2019-01-12T10:49:20.026Z,93.70
2019-01-12T10:50:20.015Z,93.60
2019-01-12T10:51:20.013Z,94.07
2019-01-12T10:52:19.994Z,93.49
2019-01-12T10:53:19.982Z,93.70
2019-01-12T10:54:19.974Z,92.77
2019-01-12T10:55:19.988Z,92.52
2019-01-12T10:56:21.295Z,93.04
2019-01-12T10:57:19.942Z,92.57
2019-01-12T10:58:19.930Z,93.14
2019-01-12T10:59:19.921Z,92.72
2019-01-12T11:00:19.909Z,93.76
2019-01-12T11:01:19.907Z,92.83
2019-01-12T11:02:19.887Z,93.45
2019-01-12T11:03:19.876Z,93.55
2019-01-12T11:04:19.868Z,92.83
2019-01-12T11:05:19.857Z,92.72
2019-01-12T11:06:19.853Z,92.72
2019-01-12T11:07:19.837Z,92.99
2019-01-12T11:08:19.823Z,92.89
2019-01-12T11:09:19.813Z,92.68
2019-01-12T11:10:19.803Z,93.30
2019-01-12T11:11:19.853Z,93.10
2019-01-12T11:12:19.779Z,92.07
2019-01-12T11:13:19.770Z,92.17
2019-01-12T11:14:19.760Z,92.00
2019-01-12T11:15:19.752Z,92.00
2019-01-12T11:16:19.740Z,92.27
2019-01-12T11:17:19.736Z,92.17
2019-01-12T11:18:19.718Z,91.90
2019-01-12T11:19:19.705Z,92.27
2019-01-12T11:20:19.696Z,92.42
2019-01-12T11:21:19.687Z,92.42
2019-01-12T11:22:19.684Z,92.32
2019-01-12T11:23:19.665Z,91.86
2019-01-12T11:24:19.652Z,91.69
2019-01-12T11:25:19.640Z,90.77
2019-01-12T11:26:19.632Z,91.59
2019-01-12T11:27:19.630Z,90.77
2019-01-12T11:28:19.609Z,90.66
2019-01-12T11:29:19.598Z,91.86
2019-01-12T11:30:19.600Z,92.32
2019-01-12T11:31:20.017Z,92.32
2019-01-12T11:32:19.577Z,92.21
2019-01-12T11:33:19.555Z,91.80
2019-01-12T11:34:19.547Z,92.00
2019-01-12T11:35:19.537Z,92.11
2019-01-12T11:36:19.524Z,92.00
2019-01-12T11:37:19.525Z,92.42
2019-01-12T11:38:19.502Z,92.32
2019-01-12T11:39:19.495Z,93.45
2019-01-12T11:40:19.493Z,93.45
2019-01-12T11:41:19.470Z,93.66
2019-01-12T11:42:19.467Z,93.08
2019-01-12T11:43:19.449Z,92.46
2019-01-12T11:44:19.440Z,93.18
2019-01-12T11:45:19.431Z,93.04
2019-01-12T11:46:19.418Z,92.52
2019-01-12T11:47:19.418Z,93.49
2019-01-12T11:48:19.398Z,92.87
2019-01-12T11:49:19.385Z,92.83
2019-01-12T11:50:19.374Z,93.39
2019-01-12T11:51:19.364Z,93.08
2019-01-12T11:52:19.360Z,92.57
2019-01-12T11:53:19.341Z,92.15
2019-01-12T11:54:19.331Z,92.72
2019-01-12T11:55:19.324Z,92.25
2019-01-12T11:56:19.310Z,92.87
2019-01-12T11:57:19.450Z,92.67
2019-01-12T11:58:19.289Z,92.63
2019-01-12T11:59:19.277Z,93.14
2019-01-12T12:00:19.267Z,93.80
2019-01-12T12:01:19.255Z,93.91
2019-01-12T12:02:19.257Z,93.18
2019-01-12T12:03:19.235Z,92.87
2019-01-12T12:04:19.224Z,92.67
2019-01-12T12:05:19.212Z,92.46
2019-01-12T12:06:19.202Z,92.46
2019-01-12T12:07:19.203Z,92.15
2019-01-12T12:08:19.179Z,92.25
2019-01-12T12:09:19.172Z,92.57
2019-01-12T12:10:19.159Z,93.08
2019-01-12T12:11:19.148Z,92.87
2019-01-12T12:12:19.145Z,92.36
2019-01-12T12:13:19.126Z,92.05
2019-01-12T12:14:19.115Z,92.97
2019-01-12T12:15:19.105Z,93.18
2019-01-12T12:16:19.099Z,93.29
2019-01-12T12:17:19.110Z,94.12
2019-01-12T12:18:19.073Z,92.97
2019-01-12T12:19:19.061Z,92.87
2019-01-12T12:20:19.051Z,92.42
2019-01-12T12:21:19.045Z,93.14
2019-01-12T12:22:19.028Z,93.04
2019-01-12T12:23:19.029Z,93.04
2019-01-12T12:24:19.008Z,93.45
2019-01-12T12:25:18.999Z,93.35
2019-01-12T12:26:18.985Z,92.21
2019-01-12T12:27:25.840Z,92.32
2019-01-12T12:28:19.971Z,92.21
2019-01-12T12:29:18.952Z,92.21
2019-01-12T12:30:18.941Z,92.21
2019-01-12T12:31:18.931Z,90.77
2019-01-12T12:32:18.921Z,90.77
2019-01-12T12:33:18.924Z,90.87
2019-01-12T12:34:18.898Z,90.87
2019-01-12T12:35:18.889Z,90.87
2019-01-12T12:36:18.876Z,91.07
2019-01-12T12:37:18.865Z,91.17
2019-01-12T12:38:18.863Z,90.66
2019-01-12T12:39:18.848Z,90.56
2019-01-12T12:40:18.836Z,90.14
2019-01-12T12:41:18.823Z,90.87
2019-01-12T12:42:18.812Z,90.97
2019-01-12T12:43:18.810Z,92.00
2019-01-12T12:44:18.793Z,90.97
2019-01-12T12:45:18.778Z,90.66
2019-01-12T12:46:18.769Z,89.83
2019-01-12T12:47:18.758Z,89.94
2019-01-12T12:48:18.759Z,90.87
2019-01-12T12:49:18.739Z,90.35
2019-01-12T12:50:18.733Z,90.35
2019-01-12T12:51:18.715Z,89.62
2019-01-12T12:52:18.704Z,89.83